Jennifer — WDF6480 — position and weather

sailwx.info

Track history (hours):
 
Tides and Currents Weather Stations Pressure Air Temp Water Temp Dewpoint Dewpoint Depression Visibility Wind Speed Wind Dir Waves Ship Positions

Jennifer

Owner: John W. Stone Oil Distributor, L.L.C., Gretna, LA. More information available from US FCC via Universal Licensing System and Coast Guard Vessel Documentation Center.

Last reported at 2015-May-27 07:29 UTC. Time now 2015-May-27 07:54 UTC.
Position N 29°55' W 090°04'.

Length 17 m; draft 3 m.

Type: Tug. MMSI: 367474690.

Date/timePositionNaut miles runAvg speedWind from/ knotsBaromVisibWave heightAir tempDewpointWater temp
2015-May-27 07:29N 29°55' W 090°04'0 0.0
2015-May-27 06:30N 29°55' W 090°04'1 1.3
2015-May-27 05:28N 29°55' W 090°05'0 0.4
2015-May-27 04:31N 29°54' W 090°05'5 4.9
2015-May-27 03:24N 29°49' W 090°04'24 3.9
2015-May-26 21:12N 29°33' W 090°26'3 4.9
2015-May-26 20:32N 29°34' W 090°30'5 4.9
2015-May-26 19:33N 29°35' W 090°35'5 4.8
2015-May-26 18:33N 29°36' W 090°40'3 3.3
2015-May-26 17:33N 29°34' W 090°43'2 1.8
2015-May-26 16:33N 29°33' W 090°45'7 5.6
2015-May-26 15:13N 29°33' W 090°54'3 0.1
2015-May-24 13:07N 29°34' W 090°56'4 6.1
2015-May-24 12:28N 29°32' W 090°52'5 6.0
2015-May-24 11:33N 29°32' W 090°46'5 4.9
2015-May-24 10:33N 29°36' W 090°43'4 3.6
2015-May-24 09:33N 29°35' W 090°39'5 5.1
2015-May-24 08:33N 29°34' W 090°33'32 4.5
2015-May-24 01:31N 29°54' W 090°05'1 0.4
2015-May-23 23:25N 29°55' W 090°05'1 1.1
2015-May-23 22:19N 29°55' W 090°04'0 0.1
2015-May-23 21:32N 29°55' W 090°04'0 0.0
2015-May-23 20:33N 29°55' W 090°04'1 1.0
2015-May-23 19:28N 29°56' W 090°03'2 2.3
2015-May-23 18:28N 29°57' W 090°01'0 0.0
2015-May-23 17:19N 29°57' W 090°01'1 0.8
2015-May-23 16:33N 29°57' W 090°01'6 5.5
2015-May-23 15:33N 29°54' W 090°07'0 0.0
2015-May-23 14:33N 29°54' W 090°07'0 0.2
2015-May-23 13:33N 29°54' W 090°07'2 2.2
2015-May-23 12:30N 29°56' W 090°09'0 0.0
2015-May-23 11:31N 29°56' W 090°09'0 0.0
2015-May-23 10:30N 29°56' W 090°09'0 0.0
2015-May-23 09:32N 29°56' W 090°09'0 0.0
2015-May-23 08:33N 29°56' W 090°09'0 0.0
2015-May-23 07:29N 29°56' W 090°09'0 0.0
2015-May-23 06:27N 29°56' W 090°09'3 3.4
2015-May-23 05:31N 29°55' W 090°05'1 1.4
2015-May-23 04:33N 29°55' W 090°04'0 0.0
2015-May-23 03:29N 29°55' W 090°04'0 0.0
2015-May-23 02:33N 29°55' W 090°04'1 1.4
2015-May-23 01:33N 29°57' W 090°03'0 0.0
2015-May-23 00:33N 29°57' W 090°03'0 0.0
2015-May-22 23:32N 29°57' W 090°03'3 2.8
2015-May-22 22:32N 29°56' W 090°00'0 0.1
2015-May-22 21:24N 29°56' W 090°00'2 0.6
2015-May-22 18:22N 29°55' W 089°58'5 0.2
2015-May-21 18:10N 29°55' W 090°04'0 0.0
2015-May-21 17:31N 29°55' W 090°04'0 0.0
2015-May-21 16:06N 29°56' W 090°04'0 0.1
2015-May-21 15:20N 29°55' W 090°04'0 0.0
2015-May-21 14:30N 29°55' W 090°04'0 0.0
2015-May-21 13:32N 29°55' W 090°04'0 0.0
2015-May-21 12:33N 29°55' W 090°04'0 0.0
2015-May-21 11:33N 29°55' W 090°04'0 0.0
2015-May-21 10:27N 29°55' W 090°04'0 0.0
2015-May-21 09:32N 29°55' W 090°04'0 0.0
2015-May-21 08:30N 29°55' W 090°04'0 0.0
2015-May-21 07:33N 29°55' W 090°04'0 0.0
2015-May-21 06:33N 29°55' W 090°04'0 0.0
2015-May-21 05:31N 29°55' W 090°04'0 0.0
2015-May-21 04:32N 29°55' W 090°04'0 0.0
2015-May-21 03:32N 29°55' W 090°04'0 0.0
2015-May-21 02:30N 29°55' W 090°04'0 0.0
2015-May-21 01:33N 29°55' W 090°04'0 0.0
2015-May-21 00:31N 29°55' W 090°04'0 0.0
2015-May-20 23:32N 29°55' W 090°04'0 0.0
2015-May-20 22:32N 29°55' W 090°04'0 0.0
2015-May-20 21:32N 29°55' W 090°04'0 0.0
2015-May-20 20:30N 29°55' W 090°04'0 0.0
2015-May-20 19:15N 29°55' W 090°04'6 0.1
2015-May-19 00:07N 29°55' W 089°57'5 8.6
2015-May-18 23:29N 29°57' W 090°02'2 2.3
2015-May-18 22:30N 29°56' W 090°04'0 0.2
2015-May-18 21:29N 29°55' W 090°04'2 0.1
2015-May-18 07:28N 29°57' W 090°03'4 1.8
2015-May-18 05:24N 29°56' W 089°59'0 0.0
2015-May-18 04:28N 29°56' W 089°59'0 0.2
2015-May-18 03:32N 29°56' W 089°59'4 3.0
2015-May-18 02:18N 29°55' W 090°04'0 0.0
2015-May-18 01:33N 29°55' W 090°04'0 0.0
2015-May-18 00:30N 29°55' W 090°04'1 1.4
2015-May-17 23:33N 29°57' W 090°03'7 3.0
2015-May-17 21:21N 29°53' W 089°57'  
Track history (hours):
 
Tides and Currents Weather Stations Pressure Air Temp Water Temp Dewpoint Dewpoint Depression Visibility Wind Speed Wind Dir Waves Ship Positions

Jennifer

Owner: John W. Stone Oil Distributor, L.L.C., Gretna, LA. More information available from US FCC via Universal Licensing System and Coast Guard Vessel Documentation Center.

Last reported at 2015-May-27 07:29 UTC. Time now 2015-May-27 07:54 UTC.
Position N 29°55' W 090°04'.

Length 17 m; draft 3 m.

Type: Tug. MMSI: 367474690.

Date/timePositionNaut miles runAvg speedWind from/ knotsBaromVisibWave heightAir tempDewpointWater temp
2015-May-27 07:29N 29°55' W 090°04'0 0.0
2015-May-27 06:30N 29°55' W 090°04'1 1.3
2015-May-27 05:28N 29°55' W 090°05'0 0.4
2015-May-27 04:31N 29°54' W 090°05'5 4.9
2015-May-27 03:24N 29°49' W 090°04'24 3.9
2015-May-26 21:12N 29°33' W 090°26'3 4.9
2015-May-26 20:32N 29°34' W 090°30'5 4.9
2015-May-26 19:33N 29°35' W 090°35'5 4.8
2015-May-26 18:33N 29°36' W 090°40'3 3.3
2015-May-26 17:33N 29°34' W 090°43'2 1.8
2015-May-26 16:33N 29°33' W 090°45'7 5.6
2015-May-26 15:13N 29°33' W 090°54'3 0.1
2015-May-24 13:07N 29°34' W 090°56'4 6.1
2015-May-24 12:28N 29°32' W 090°52'5 6.0
2015-May-24 11:33N 29°32' W 090°46'5 4.9
2015-May-24 10:33N 29°36' W 090°43'4 3.6
2015-May-24 09:33N 29°35' W 090°39'5 5.1
2015-May-24 08:33N 29°34' W 090°33'32 4.5
2015-May-24 01:31N 29°54' W 090°05'1 0.4
2015-May-23 23:25N 29°55' W 090°05'1 1.1
2015-May-23 22:19N 29°55' W 090°04'0 0.1
2015-May-23 21:32N 29°55' W 090°04'0 0.0
2015-May-23 20:33N 29°55' W 090°04'1 1.0
2015-May-23 19:28N 29°56' W 090°03'2 2.3
2015-May-23 18:28N 29°57' W 090°01'0 0.0
2015-May-23 17:19N 29°57' W 090°01'1 0.8
2015-May-23 16:33N 29°57' W 090°01'6 5.5
2015-May-23 15:33N 29°54' W 090°07'0 0.0
2015-May-23 14:33N 29°54' W 090°07'0 0.2
2015-May-23 13:33N 29°54' W 090°07'2 2.2
2015-May-23 12:30N 29°56' W 090°09'0 0.0
2015-May-23 11:31N 29°56' W 090°09'0 0.0
2015-May-23 10:30N 29°56' W 090°09'0 0.0
2015-May-23 09:32N 29°56' W 090°09'0 0.0
2015-May-23 08:33N 29°56' W 090°09'0 0.0
2015-May-23 07:29N 29°56' W 090°09'0 0.0
2015-May-23 06:27N 29°56' W 090°09'3 3.4
2015-May-23 05:31N 29°55' W 090°05'1 1.4
2015-May-23 04:33N 29°55' W 090°04'0 0.0
2015-May-23 03:29N 29°55' W 090°04'0 0.0
2015-May-23 02:33N 29°55' W 090°04'1 1.4
2015-May-23 01:33N 29°57' W 090°03'0 0.0
2015-May-23 00:33N 29°57' W 090°03'0 0.0
2015-May-22 23:32N 29°57' W 090°03'3 2.8
2015-May-22 22:32N 29°56' W 090°00'0 0.1
2015-May-22 21:24N 29°56' W 090°00'2 0.6
2015-May-22 18:22N 29°55' W 089°58'5 0.2
2015-May-21 18:10N 29°55' W 090°04'0 0.0
2015-May-21 17:31N 29°55' W 090°04'0 0.0
2015-May-21 16:06N 29°56' W 090°04'0 0.1
2015-May-21 15:20N 29°55' W 090°04'0 0.0
2015-May-21 14:30N 29°55' W 090°04'0 0.0
2015-May-21 13:32N 29°55' W 090°04'0 0.0
2015-May-21 12:33N 29°55' W 090°04'0 0.0
2015-May-21 11:33N 29°55' W 090°04'0 0.0
2015-May-21 10:27N 29°55' W 090°04'0 0.0
2015-May-21 09:32N 29°55' W 090°04'0 0.0
2015-May-21 08:30N 29°55' W 090°04'0 0.0
2015-May-21 07:33N 29°55' W 090°04'0 0.0
2015-May-21 06:33N 29°55' W 090°04'0 0.0
2015-May-21 05:31N 29°55' W 090°04'0 0.0
2015-May-21 04:32N 29°55' W 090°04'0 0.0
2015-May-21 03:32N 29°55' W 090°04'0 0.0
2015-May-21 02:30N 29°55' W 090°04'0 0.0
2015-May-21 01:33N 29°55' W 090°04'0 0.0
2015-May-21 00:31N 29°55' W 090°04'0 0.0
2015-May-20 23:32N 29°55' W 090°04'0 0.0
2015-May-20 22:32N 29°55' W 090°04'0 0.0
2015-May-20 21:32N 29°55' W 090°04'0 0.0
2015-May-20 20:30N 29°55' W 090°04'0 0.0
2015-May-20 19:15N 29°55' W 090°04'6 0.1
2015-May-19 00:07N 29°55' W 089°57'5 8.6
2015-May-18 23:29N 29°57' W 090°02'2 2.3
2015-May-18 22:30N 29°56' W 090°04'0 0.2
2015-May-18 21:29N 29°55' W 090°04'2 0.1
2015-May-18 07:28N 29°57' W 090°03'4 1.8
2015-May-18 05:24N 29°56' W 089°59'0 0.0
2015-May-18 04:28N 29°56' W 089°59'0 0.2
2015-May-18 03:32N 29°56' W 089°59'4 3.0
2015-May-18 02:18N 29°55' W 090°04'0 0.0
2015-May-18 01:33N 29°55' W 090°04'0 0.0
2015-May-18 00:30N 29°55' W 090°04'1 1.4
2015-May-17 23:33N 29°57' W 090°03'7 3.0
2015-May-17 21:21N 29°53' W 089°57'  

Dump ship's entire track history